Etusivu
METAR-TAF:

METAR-TAF

Lentoasemat :

Odense, Tanska

Leveyspiiri: 55-29N, Pituuspiiri: 010-20E, korkeus merenpinnasta: 17 m

Tämänhetkinen sää

Tämä raportti tehtiin 26 minuuttia sitten, kello 11.50 UTC
Tuuli 6 kn lounaasta, vaihdellen etelän/lounaan ja lännen välillä
Lämpötila 12°C
Kosteus 82%
Ilmanpaine 1009 hPa
Näkyvyys 10 km tai enemmän
Muutamia pilviä 2000 ft:n korkeudessa, Kasvava cumulus-pilvi.
Hajanaisia pilviä 3300 ft:n korkeudessa

METAR: EKOD 231150Z 23006KT 200V270 9999 FEW020TCU SCT033 12/09 Q1009

Aika: 14:16 (12:16 UTC)

Sääennuste

Tämä raportti tehtiin 25 minuuttia sitten, kello 11.51 UTC
Ennuste voimassa 23. päivästä klo 12 UTC - 23. päivään klo 16 UTC
Tuuli 10 kn lännestä
Näkyvyys 10 km tai enemmän
Hajanaisia pilviä 3000 ft:n korkeudessa
Ajoittain
23. päivästä klo 12 UTC - 23. päivään klo 16 UTC
Hajanaisia pilviä 2000 ft:n korkeudessa, Cumulonimbus.
heikkoja vesikuuroja

TAF: EKOD 231151Z 2312/2316 28010KT 9999 SCT030 TEMPO 2312/2316 -SHRA SCT020CB

Säähavainnot ja -ennusteet yli 4000 lentoasemalta (METAR- ja TAF-raportit).

Käytössä olevat sääasemat on merkitty karttaan keltaisilla ja punaisilla pisteillä.

Aseta hiiri pisteen päälle nähdäksesi sääaseman nimen.

Klikkaa sitten nähdäksesi säähavainnot ja -ennusteet.

Kartan vaihtaminen: klikkaa mustalla rastilla varustettuja vihreitä pisteitä, niin voit zoomata sisään; viivalla varustettua vihreää pistettä, niin voit zoomata ulos tai vihreitä nuolia, niin pääset viereisille kartoille.


METAR-TAF: